sensor_id;sensor_type;location;lat;lon;timestamp;P1;durP1;ratioP1;P2;durP2;ratioP2
42770;SDS011;28426;42.872;25.314;2023-05-21T00:01:21;13.38;;;5.65;;
42770;SDS011;28426;42.872;25.314;2023-05-21T00:03:51;10.32;;;6.00;;
42770;SDS011;28426;42.872;25.314;2023-05-21T00:06:22;10.68;;;6.65;;
42770;SDS011;28426;42.872;25.314;2023-05-21T00:08:54;16.60;;;7.68;;
42770;SDS011;28426;42.872;25.314;2023-05-21T00:11:24;13.75;;;7.75;;
42770;SDS011;28426;42.872;25.314;2023-05-21T00:13:58;16.90;;;8.95;;
42770;SDS011;28426;42.872;25.314;2023-05-21T00:16:29;11.65;;;7.40;;
42770;SDS011;28426;42.872;25.314;2023-05-21T00:19:00;17.02;;;9.10;;
42770;SDS011;28426;42.872;25.314;2023-05-21T00:21:31;13.35;;;6.93;;
42770;SDS011;28426;42.872;25.314;2023-05-21T00:24:01;12.38;;;8.23;;
42770;SDS011;28426;42.872;25.314;2023-05-21T00:26:32;15.82;;;8.02;;
42770;SDS011;28426;42.872;25.314;2023-05-21T00:29:06;10.05;;;7.68;;
42770;SDS011;28426;42.872;25.314;2023-05-21T00:31:37;11.65;;;6.28;;
42770;SDS011;28426;42.872;25.314;2023-05-21T00:34:08;10.23;;;6.22;;
42770;SDS011;28426;42.872;25.314;2023-05-21T00:36:39;11.10;;;5.93;;
42770;SDS011;28426;42.872;25.314;2023-05-21T00:39:12;10.85;;;6.20;;
42770;SDS011;28426;42.872;25.314;2023-05-21T00:41:43;10.32;;;5.85;;
42770;SDS011;28426;42.872;25.314;2023-05-21T00:44:17;9.80;;;5.50;;
42770;SDS011;28426;42.872;25.314;2023-05-21T00:46:51;10.55;;;5.97;;
42770;SDS011;28426;42.872;25.314;2023-05-21T00:49:22;10.13;;;5.75;;
42770;SDS011;28426;42.872;25.314;2023-05-21T00:51:53;10.73;;;6.03;;
42770;SDS011;28426;42.872;25.314;2023-05-21T00:54:28;12.13;;;6.10;;
42770;SDS011;28426;42.872;25.314;2023-05-21T00:56:59;10.13;;;6.00;;
42770;SDS011;28426;42.872;25.314;2023-05-21T00:59:34;10.77;;;5.95;;
42770;SDS011;28426;42.872;25.314;2023-05-21T01:02:05;12.98;;;5.68;;
42770;SDS011;28426;42.872;25.314;2023-05-21T01:04:40;7.60;;;5.43;;
42770;SDS011;28426;42.872;25.314;2023-05-21T01:07:11;10.15;;;6.35;;
42770;SDS011;28426;42.872;25.314;2023-05-21T01:09:42;12.60;;;6.60;;
42770;SDS011;28426;42.872;25.314;2023-05-21T01:12:13;9.63;;;5.72;;
42770;SDS011;28426;42.872;25.314;2023-05-21T01:14:49;12.45;;;5.95;;
42770;SDS011;28426;42.872;25.314;2023-05-21T01:17:21;10.57;;;5.53;;
42770;SDS011;28426;42.872;25.314;2023-05-21T01:19:52;11.88;;;6.13;;
42770;SDS011;28426;42.872;25.314;2023-05-21T01:22:24;15.73;;;6.15;;
42770;SDS011;28426;42.872;25.314;2023-05-21T01:25:02;9.55;;;5.75;;
42770;SDS011;28426;42.872;25.314;2023-05-21T01:27:33;11.68;;;5.35;;
42770;SDS011;28426;42.872;25.314;2023-05-21T01:30:04;13.05;;;5.57;;
42770;SDS011;28426;42.872;25.314;2023-05-21T01:32:37;10.30;;;5.78;;
42770;SDS011;28426;42.872;25.314;2023-05-21T01:35:19;9.85;;;5.50;;
42770;SDS011;28426;42.872;25.314;2023-05-21T01:37:53;9.05;;;5.43;;
42770;SDS011;28426;42.872;25.314;2023-05-21T01:40:37;11.32;;;5.20;;
42770;SDS011;28426;42.872;25.314;2023-05-21T01:43:11;8.23;;;5.50;;
42770;SDS011;28426;42.872;25.314;2023-05-21T01:45:43;10.68;;;5.88;;
42770;SDS011;28426;42.872;25.314;2023-05-21T01:48:15;9.15;;;6.20;;
42770;SDS011;28426;42.872;25.314;2023-05-21T01:50:47;10.90;;;5.47;;
42770;SDS011;28426;42.872;25.314;2023-05-21T01:53:21;11.82;;;6.40;;
42770;SDS011;28426;42.872;25.314;2023-05-21T01:55:54;10.80;;;6.40;;
42770;SDS011;28426;42.872;25.314;2023-05-21T01:58:25;10.82;;;5.80;;
42770;SDS011;28426;42.872;25.314;2023-05-21T02:00:56;11.57;;;6.53;;
42770;SDS011;28426;42.872;25.314;2023-05-21T02:03:29;9.88;;;5.78;;
42770;SDS011;28426;42.872;25.314;2023-05-21T02:06:00;9.32;;;5.40;;
42770;SDS011;28426;42.872;25.314;2023-05-21T02:08:31;13.95;;;5.97;;
42770;SDS011;28426;42.872;25.314;2023-05-21T02:11:05;8.85;;;5.30;;
42770;SDS011;28426;42.872;25.314;2023-05-21T02:13:37;11.30;;;5.30;;
42770;SDS011;28426;42.872;25.314;2023-05-21T02:16:09;14.05;;;6.13;;
42770;SDS011;28426;42.872;25.314;2023-05-21T02:18:41;12.65;;;5.32;;
42770;SDS011;28426;42.872;25.314;2023-05-21T02:21:14;9.88;;;5.47;;
42770;SDS011;28426;42.872;25.314;2023-05-21T02:23:47;11.45;;;5.43;;
42770;SDS011;28426;42.872;25.314;2023-05-21T02:26:20;10.90;;;6.03;;
42770;SDS011;28426;42.872;25.314;2023-05-21T02:28:52;8.88;;;5.45;;
42770;SDS011;28426;42.872;25.314;2023-05-21T02:31:23;8.60;;;5.38;;
42770;SDS011;28426;42.872;25.314;2023-05-21T02:33:54;10.73;;;5.38;;
42770;SDS011;28426;42.872;25.314;2023-05-21T02:36:25;11.30;;;5.43;;
42770;SDS011;28426;42.872;25.314;2023-05-21T02:38:59;10.38;;;5.47;;
42770;SDS011;28426;42.872;25.314;2023-05-21T02:41:33;10.13;;;6.13;;
42770;SDS011;28426;42.872;25.314;2023-05-21T02:44:04;10.25;;;5.70;;
42770;SDS011;28426;42.872;25.314;2023-05-21T02:46:35;10.00;;;5.45;;
42770;SDS011;28426;42.872;25.314;2023-05-21T02:49:06;10.40;;;5.72;;
42770;SDS011;28426;42.872;25.314;2023-05-21T02:51:38;11.65;;;5.60;;
42770;SDS011;28426;42.872;25.314;2023-05-21T02:54:09;9.75;;;5.75;;
42770;SDS011;28426;42.872;25.314;2023-05-21T02:56:43;10.68;;;5.45;;
42770;SDS011;28426;42.872;25.314;2023-05-21T02:59:13;14.10;;;5.85;;
42770;SDS011;28426;42.872;25.314;2023-05-21T03:01:44;10.52;;;5.85;;
42770;SDS011;28426;42.872;25.314;2023-05-21T03:04:15;11.65;;;5.85;;
42770;SDS011;28426;42.872;25.314;2023-05-21T03:06:48;11.55;;;5.45;;
42770;SDS011;28426;42.872;25.314;2023-05-21T03:09:21;11.50;;;6.13;;
42770;SDS011;28426;42.872;25.314;2023-05-21T03:11:56;14.45;;;6.05;;
42770;SDS011;28426;42.872;25.314;2023-05-21T03:14:28;10.07;;;5.68;;
42770;SDS011;28426;42.872;25.314;2023-05-21T03:16:58;9.63;;;5.68;;
42770;SDS011;28426;42.872;25.314;2023-05-21T03:19:32;11.93;;;5.20;;
42770;SDS011;28426;42.872;25.314;2023-05-21T03:22:04;9.60;;;5.82;;
42770;SDS011;28426;42.872;25.314;2023-05-21T03:24:36;16.92;;;6.07;;
42770;SDS011;28426;42.872;25.314;2023-05-21T03:27:11;14.98;;;6.13;;
42770;SDS011;28426;42.872;25.314;2023-05-21T03:29:43;9.90;;;5.32;;
42770;SDS011;28426;42.872;25.314;2023-05-21T03:32:14;9.45;;;5.72;;
42770;SDS011;28426;42.872;25.314;2023-05-21T03:34:47;9.82;;;5.43;;
42770;SDS011;28426;42.872;25.314;2023-05-21T03:37:18;18.45;;;7.05;;
42770;SDS011;28426;42.872;25.314;2023-05-21T03:39:49;13.77;;;5.95;;
42770;SDS011;28426;42.872;25.314;2023-05-21T03:42:22;12.00;;;5.80;;
42770;SDS011;28426;42.872;25.314;2023-05-21T03:44:55;9.85;;;5.65;;
42770;SDS011;28426;42.872;25.314;2023-05-21T03:47:48;15.82;;;6.35;;
42770;SDS011;28426;42.872;25.314;2023-05-21T03:50:19;10.82;;;5.65;;
42770;SDS011;28426;42.872;25.314;2023-05-21T03:52:50;11.15;;;6.57;;
42770;SDS011;28426;42.872;25.314;2023-05-21T03:55:21;9.93;;;5.78;;
42770;SDS011;28426;42.872;25.314;2023-05-21T03:57:55;8.48;;;5.85;;
42770;SDS011;28426;42.872;25.314;2023-05-21T04:00:26;11.93;;;6.10;;
42770;SDS011;28426;42.872;25.314;2023-05-21T04:02:59;13.75;;;6.15;;
42770;SDS011;28426;42.872;25.314;2023-05-21T04:05:30;10.32;;;5.85;;
42770;SDS011;28426;42.872;25.314;2023-05-21T04:08:01;8.68;;;5.55;;
42770;SDS011;28426;42.872;25.314;2023-05-21T04:10:33;12.73;;;5.38;;
42770;SDS011;28426;42.872;25.314;2023-05-21T04:13:06;8.45;;;5.20;;
42770;SDS011;28426;42.872;25.314;2023-05-21T04:15:37;7.88;;;5.20;;
42770;SDS011;28426;42.872;25.314;2023-05-21T04:18:10;9.88;;;5.53;;
42770;SDS011;28426;42.872;25.314;2023-05-21T04:20:42;9.02;;;6.35;;
42770;SDS011;28426;42.872;25.314;2023-05-21T04:23:13;13.93;;;5.93;;
42770;SDS011;28426;42.872;25.314;2023-05-21T04:25:44;12.73;;;6.78;;
42770;SDS011;28426;42.872;25.314;2023-05-21T04:28:20;12.75;;;6.38;;
42770;SDS011;28426;42.872;25.314;2023-05-21T04:30:51;9.93;;;5.35;;
42770;SDS011;28426;42.872;25.314;2023-05-21T04:33:23;11.07;;;5.43;;
42770;SDS011;28426;42.872;25.314;2023-05-21T04:35:55;11.65;;;5.53;;
42770;SDS011;28426;42.872;25.314;2023-05-21T04:38:26;14.70;;;5.32;;
42770;SDS011;28426;42.872;25.314;2023-05-21T04:40:57;10.93;;;5.50;;
42770;SDS011;28426;42.872;25.314;2023-05-21T04:43:32;9.15;;;5.40;;
42770;SDS011;28426;42.872;25.314;2023-05-21T04:46:04;10.95;;;6.47;;
42770;SDS011;28426;42.872;25.314;2023-05-21T04:48:35;11.30;;;5.80;;
42770;SDS011;28426;42.872;25.314;2023-05-21T04:51:08;14.38;;;5.57;;
42770;SDS011;28426;42.872;25.314;2023-05-21T04:53:39;10.98;;;5.88;;
42770;SDS011;28426;42.872;25.314;2023-05-21T04:56:10;10.63;;;5.35;;
42770;SDS011;28426;42.872;25.314;2023-05-21T04:58:43;13.25;;;5.60;;
42770;SDS011;28426;42.872;25.314;2023-05-21T05:01:15;13.52;;;4.88;;
42770;SDS011;28426;42.872;25.314;2023-05-21T05:03:46;10.40;;;5.03;;
42770;SDS011;28426;42.872;25.314;2023-05-21T05:06:17;12.55;;;5.43;;
42770;SDS011;28426;42.872;25.314;2023-05-21T05:08:48;9.40;;;4.80;;
42770;SDS011;28426;42.872;25.314;2023-05-21T05:11:20;10.25;;;4.63;;
42770;SDS011;28426;42.872;25.314;2023-05-21T05:13:54;9.43;;;5.30;;
42770;SDS011;28426;42.872;25.314;2023-05-21T05:16:24;8.05;;;4.68;;
42770;SDS011;28426;42.872;25.314;2023-05-21T05:18:56;8.93;;;4.82;;
42770;SDS011;28426;42.872;25.314;2023-05-21T05:21:27;10.50;;;5.35;;
42770;SDS011;28426;42.872;25.314;2023-05-21T05:23:59;9.50;;;5.03;;
42770;SDS011;28426;42.872;25.314;2023-05-21T05:26:31;9.18;;;4.63;;
42770;SDS011;28426;42.872;25.314;2023-05-21T05:29:04;7.43;;;4.75;;
42770;SDS011;28426;42.872;25.314;2023-05-21T05:31:35;8.68;;;5.05;;
42770;SDS011;28426;42.872;25.314;2023-05-21T05:34:06;10.13;;;4.57;;
42770;SDS011;28426;42.872;25.314;2023-05-21T05:36:37;7.88;;;4.80;;
42770;SDS011;28426;42.872;25.314;2023-05-21T05:39:08;9.18;;;4.95;;
42770;SDS011;28426;42.872;25.314;2023-05-21T05:41:39;10.00;;;4.55;;
42770;SDS011;28426;42.872;25.314;2023-05-21T05:44:15;9.70;;;5.10;;
42770;SDS011;28426;42.872;25.314;2023-05-21T05:46:45;13.90;;;5.18;;
42770;SDS011;28426;42.872;25.314;2023-05-21T05:49:16;9.85;;;4.68;;
42770;SDS011;28426;42.872;25.314;2023-05-21T05:51:47;9.35;;;4.65;;
42770;SDS011;28426;42.872;25.314;2023-05-21T05:54:18;11.23;;;5.10;;
42770;SDS011;28426;42.872;25.314;2023-05-21T05:56:49;11.40;;;5.20;;
42770;SDS011;28426;42.872;25.314;2023-05-21T05:59:23;12.82;;;5.82;;
42770;SDS011;28426;42.872;25.314;2023-05-21T06:01:58;15.50;;;5.90;;
42770;SDS011;28426;42.872;25.314;2023-05-21T06:04:29;12.30;;;5.55;;
42770;SDS011;28426;42.872;25.314;2023-05-21T06:07:00;10.60;;;5.70;;
42770;SDS011;28426;42.872;25.314;2023-05-21T06:09:31;11.10;;;5.25;;
42770;SDS011;28426;42.872;25.314;2023-05-21T06:12:02;11.20;;;5.18;;
42770;SDS011;28426;42.872;25.314;2023-05-21T06:14:38;10.68;;;5.40;;
42770;SDS011;28426;42.872;25.314;2023-05-21T06:17:11;13.52;;;5.55;;
42770;SDS011;28426;42.872;25.314;2023-05-21T06:19:42;18.42;;;5.60;;
42770;SDS011;28426;42.872;25.314;2023-05-21T06:22:13;9.75;;;5.30;;
42770;SDS011;28426;42.872;25.314;2023-05-21T06:24:44;15.98;;;5.53;;
42770;SDS011;28426;42.872;25.314;2023-05-21T06:27:15;10.65;;;6.10;;
42770;SDS011;28426;42.872;25.314;2023-05-21T06:29:50;13.88;;;5.95;;
42770;SDS011;28426;42.872;25.314;2023-05-21T06:32:21;14.45;;;5.93;;
42770;SDS011;28426;42.872;25.314;2023-05-21T06:34:52;14.80;;;5.68;;
42770;SDS011;28426;42.872;25.314;2023-05-21T06:37:23;16.20;;;6.30;;
42770;SDS011;28426;42.872;25.314;2023-05-21T06:39:54;16.85;;;6.10;;
42770;SDS011;28426;42.872;25.314;2023-05-21T06:42:25;11.88;;;6.05;;
42770;SDS011;28426;42.872;25.314;2023-05-21T06:45:31;10.25;;;5.35;;
42770;SDS011;28426;42.872;25.314;2023-05-21T06:48:18;17.83;;;6.28;;
42770;SDS011;28426;42.872;25.314;2023-05-21T06:50:49;12.38;;;6.20;;
42770;SDS011;28426;42.872;25.314;2023-05-21T06:53:21;10.75;;;5.50;;
42770;SDS011;28426;42.872;25.314;2023-05-21T06:55:51;13.45;;;6.20;;
42770;SDS011;28426;42.872;25.314;2023-05-21T06:58:48;17.30;;;6.60;;
42770;SDS011;28426;42.872;25.314;2023-05-21T07:01:23;15.00;;;6.32;;
42770;SDS011;28426;42.872;25.314;2023-05-21T07:03:56;9.20;;;5.38;;
42770;SDS011;28426;42.872;25.314;2023-05-21T07:06:27;16.30;;;6.30;;
42770;SDS011;28426;42.872;25.314;2023-05-21T07:08:58;14.02;;;6.35;;
42770;SDS011;28426;42.872;25.314;2023-05-21T07:11:29;10.15;;;5.55;;
42770;SDS011;28426;42.872;25.314;2023-05-21T07:14:02;17.90;;;6.05;;
42770;SDS011;28426;42.872;25.314;2023-05-21T07:16:37;14.88;;;5.82;;
42770;SDS011;28426;42.872;25.314;2023-05-21T07:19:08;18.23;;;6.85;;
42770;SDS011;28426;42.872;25.314;2023-05-21T07:21:41;9.88;;;5.32;;
42770;SDS011;28426;42.872;25.314;2023-05-21T07:24:12;10.02;;;5.63;;
42770;SDS011;28426;42.872;25.314;2023-05-21T07:26:43;13.40;;;6.72;;
42770;SDS011;28426;42.872;25.314;2023-05-21T07:29:13;12.38;;;6.35;;
42770;SDS011;28426;42.872;25.314;2023-05-21T07:31:47;10.95;;;6.55;;
42770;SDS011;28426;42.872;25.314;2023-05-21T07:34:19;17.33;;;6.93;;
42770;SDS011;28426;42.872;25.314;2023-05-21T07:36:51;20.52;;;6.70;;
42770;SDS011;28426;42.872;25.314;2023-05-21T07:39:22;8.60;;;5.70;;
42770;SDS011;28426;42.872;25.314;2023-05-21T07:41:54;13.35;;;6.30;;
42770;SDS011;28426;42.872;25.314;2023-05-21T07:44:25;11.07;;;6.18;;
42770;SDS011;28426;42.872;25.314;2023-05-21T07:46:58;19.77;;;6.95;;
42770;SDS011;28426;42.872;25.314;2023-05-21T07:49:29;14.90;;;6.53;;
42770;SDS011;28426;42.872;25.314;2023-05-21T07:52:00;10.82;;;5.95;;
42770;SDS011;28426;42.872;25.314;2023-05-21T07:54:31;10.60;;;6.53;;
42770;SDS011;28426;42.872;25.314;2023-05-21T07:57:03;14.25;;;5.93;;
42770;SDS011;28426;42.872;25.314;2023-05-21T07:59:50;11.98;;;6.55;;
42770;SDS011;28426;42.872;25.314;2023-05-21T08:02:24;17.55;;;6.07;;
42770;SDS011;28426;42.872;25.314;2023-05-21T08:04:55;9.27;;;5.63;;
42770;SDS011;28426;42.872;25.314;2023-05-21T08:07:30;13.07;;;5.95;;
42770;SDS011;28426;42.872;25.314;2023-05-21T08:10:01;12.02;;;5.63;;
42770;SDS011;28426;42.872;25.314;2023-05-21T08:12:32;14.90;;;5.93;;
42770;SDS011;28426;42.872;25.314;2023-05-21T08:15:05;13.00;;;5.53;;
42770;SDS011;28426;42.872;25.314;2023-05-21T08:17:44;11.73;;;5.68;;
42770;SDS011;28426;42.872;25.314;2023-05-21T08:20:15;12.35;;;5.25;;
42770;SDS011;28426;42.872;25.314;2023-05-21T08:22:47;12.77;;;5.82;;
42770;SDS011;28426;42.872;25.314;2023-05-21T08:25:20;9.27;;;4.47;;
42770;SDS011;28426;42.872;25.314;2023-05-21T08:27:53;8.98;;;4.75;;
42770;SDS011;28426;42.872;25.314;2023-05-21T08:30:24;11.02;;;5.05;;
42770;SDS011;28426;42.872;25.314;2023-05-21T08:32:58;12.32;;;5.13;;
42770;SDS011;28426;42.872;25.314;2023-05-21T08:35:32;14.48;;;5.32;;
42770;SDS011;28426;42.872;25.314;2023-05-21T08:38:13;11.02;;;4.97;;
42770;SDS011;28426;42.872;25.314;2023-05-21T08:40:59;7.93;;;4.88;;
42770;SDS011;28426;42.872;25.314;2023-05-21T08:43:30;7.70;;;4.78;;
42770;SDS011;28426;42.872;25.314;2023-05-21T08:46:03;12.50;;;5.22;;
42770;SDS011;28426;42.872;25.314;2023-05-21T08:48:41;11.15;;;4.93;;
42770;SDS011;28426;42.872;25.314;2023-05-21T08:51:12;12.50;;;5.00;;
42770;SDS011;28426;42.872;25.314;2023-05-21T08:53:47;7.55;;;4.28;;
42770;SDS011;28426;42.872;25.314;2023-05-21T08:56:20;13.45;;;4.57;;
42770;SDS011;28426;42.872;25.314;2023-05-21T08:58:54;8.70;;;4.30;;
42770;SDS011;28426;42.872;25.314;2023-05-21T09:01:29;12.10;;;4.55;;
42770;SDS011;28426;42.872;25.314;2023-05-21T09:04:30;7.93;;;4.90;;
42770;SDS011;28426;42.872;25.314;2023-05-21T09:07:02;8.98;;;4.80;;
42770;SDS011;28426;42.872;25.314;2023-05-21T09:09:54;7.75;;;4.07;;
42770;SDS011;28426;42.872;25.314;2023-05-21T09:12:26;8.30;;;4.40;;
42770;SDS011;28426;42.872;25.314;2023-05-21T09:14:59;9.52;;;4.05;;
42770;SDS011;28426;42.872;25.314;2023-05-21T09:17:34;8.50;;;4.13;;
42770;SDS011;28426;42.872;25.314;2023-05-21T09:20:33;9.85;;;4.07;;
42770;SDS011;28426;42.872;25.314;2023-05-21T09:23:04;11.82;;;4.25;;
42770;SDS011;28426;42.872;25.314;2023-05-21T09:25:39;8.27;;;4.07;;
42770;SDS011;28426;42.872;25.314;2023-05-21T09:28:12;7.95;;;4.18;;
42770;SDS011;28426;42.872;25.314;2023-05-21T09:30:44;13.75;;;4.78;;
42770;SDS011;28426;42.872;25.314;2023-05-21T09:33:23;6.22;;;4.20;;
42770;SDS011;28426;42.872;25.314;2023-05-21T09:35:58;6.78;;;4.35;;
42770;SDS011;28426;42.872;25.314;2023-05-21T09:41:03;8.63;;;4.00;;
42770;SDS011;28426;42.872;25.314;2023-05-21T09:43:35;12.02;;;4.72;;
42770;SDS011;28426;42.872;25.314;2023-05-21T09:46:06;10.35;;;4.28;;
42770;SDS011;28426;42.872;25.314;2023-05-21T09:48:37;12.48;;;4.18;;
42770;SDS011;28426;42.872;25.314;2023-05-21T09:51:16;11.15;;;4.30;;
42770;SDS011;28426;42.872;25.314;2023-05-21T09:53:49;12.73;;;4.38;;
42770;SDS011;28426;42.872;25.314;2023-05-21T09:56:21;9.57;;;4.20;;
42770;SDS011;28426;42.872;25.314;2023-05-21T09:58:53;11.43;;;3.85;;
42770;SDS011;28426;42.872;25.314;2023-05-21T10:01:26;9.75;;;3.72;;
42770;SDS011;28426;42.872;25.314;2023-05-21T10:04:01;11.05;;;4.05;;
42770;SDS011;28426;42.872;25.314;2023-05-21T10:06:40;9.07;;;3.67;;
42770;SDS011;28426;42.872;25.314;2023-05-21T10:09:14;8.38;;;3.47;;
42770;SDS011;28426;42.872;25.314;2023-05-21T10:11:48;7.28;;;4.00;;
42770;SDS011;28426;42.872;25.314;2023-05-21T10:14:24;7.47;;;3.88;;
42770;SDS011;28426;42.872;25.314;2023-05-21T10:16:59;9.85;;;4.05;;
42770;SDS011;28426;42.872;25.314;2023-05-21T10:19:30;9.27;;;3.60;;
42770;SDS011;28426;42.872;25.314;2023-05-21T10:22:06;8.75;;;4.18;;
42770;SDS011;28426;42.872;25.314;2023-05-21T10:24:38;9.32;;;4.00;;
42770;SDS011;28426;42.872;25.314;2023-05-21T10:27:10;9.35;;;4.32;;
42770;SDS011;28426;42.872;25.314;2023-05-21T10:29:43;7.68;;;3.50;;
42770;SDS011;28426;42.872;25.314;2023-05-21T10:32:15;8.02;;;3.78;;
42770;SDS011;28426;42.872;25.314;2023-05-21T10:34:46;13.70;;;4.00;;
42770;SDS011;28426;42.872;25.314;2023-05-21T10:37:20;7.60;;;3.80;;
42770;SDS011;28426;42.872;25.314;2023-05-21T10:39:53;6.40;;;3.63;;
42770;SDS011;28426;42.872;25.314;2023-05-21T10:42:35;12.40;;;4.38;;
42770;SDS011;28426;42.872;25.314;2023-05-21T10:45:25;10.13;;;4.43;;
42770;SDS011;28426;42.872;25.314;2023-05-21T10:48:11;8.05;;;3.85;;
42770;SDS011;28426;42.872;25.314;2023-05-21T10:53:57;7.15;;;3.70;;
42770;SDS011;28426;42.872;25.314;2023-05-21T10:56:51;8.10;;;3.80;;
42770;SDS011;28426;42.872;25.314;2023-05-21T10:59:33;9.05;;;3.90;;
42770;SDS011;28426;42.872;25.314;2023-05-21T11:02:10;9.40;;;3.97;;
42770;SDS011;28426;42.872;25.314;2023-05-21T11:04:43;7.68;;;4.05;;
42770;SDS011;28426;42.872;25.314;2023-05-21T11:07:17;11.10;;;4.20;;
42770;SDS011;28426;42.872;25.314;2023-05-21T11:09:55;9.10;;;3.80;;
42770;SDS011;28426;42.872;25.314;2023-05-21T11:13:09;9.30;;;4.15;;
42770;SDS011;28426;42.872;25.314;2023-05-21T11:21:34;11.65;;;4.68;;
42770;SDS011;28426;42.872;25.314;2023-05-21T11:24:05;8.15;;;4.72;;
42770;SDS011;28426;42.872;25.314;2023-05-21T11:29:37;7.72;;;4.35;;
42770;SDS011;28426;42.872;25.314;2023-05-21T11:32:11;10.50;;;4.70;;
42770;SDS011;28426;42.872;25.314;2023-05-21T11:34:46;8.68;;;4.78;;
42770;SDS011;28426;42.872;25.314;2023-05-21T11:37:23;8.73;;;4.25;;
42770;SDS011;28426;42.872;25.314;2023-05-21T11:39:57;11.32;;;6.10;;
42770;SDS011;28426;42.872;25.314;2023-05-21T11:42:47;12.10;;;4.70;;
42770;SDS011;28426;42.872;25.314;2023-05-21T11:45:20;7.72;;;4.47;;
42770;SDS011;28426;42.872;25.314;2023-05-21T11:47:51;10.68;;;3.97;;
42770;SDS011;28426;42.872;25.314;2023-05-21T11:50:24;8.00;;;4.38;;
42770;SDS011;28426;42.872;25.314;2023-05-21T11:52:56;6.97;;;3.92;;
42770;SDS011;28426;42.872;25.314;2023-05-21T11:55:29;10.13;;;4.20;;
42770;SDS011;28426;42.872;25.314;2023-05-21T11:58:04;11.45;;;4.25;;
42770;SDS011;28426;42.872;25.314;2023-05-21T12:00:38;10.43;;;4.47;;
42770;SDS011;28426;42.872;25.314;2023-05-21T12:03:12;10.15;;;4.00;;
42770;SDS011;28426;42.872;25.314;2023-05-21T12:05:44;9.65;;;4.03;;
42770;SDS011;28426;42.872;25.314;2023-05-21T12:08:20;11.15;;;4.53;;
42770;SDS011;28426;42.872;25.314;2023-05-21T12:10:54;7.07;;;3.72;;
42770;SDS011;28426;42.872;25.314;2023-05-21T12:13:30;8.50;;;3.53;;
42770;SDS011;28426;42.872;25.314;2023-05-21T12:16:01;7.65;;;3.85;;
42770;SDS011;28426;42.872;25.314;2023-05-21T12:18:33;8.18;;;4.10;;
42770;SDS011;28426;42.872;25.314;2023-05-21T12:21:06;12.32;;;4.78;;
42770;SDS011;28426;42.872;25.314;2023-05-21T12:23:38;9.73;;;4.03;;
42770;SDS011;28426;42.872;25.314;2023-05-21T12:26:09;10.52;;;4.22;;
42770;SDS011;28426;42.872;25.314;2023-05-21T12:28:44;8.15;;;4.30;;
42770;SDS011;28426;42.872;25.314;2023-05-21T12:31:15;9.50;;;4.00;;
42770;SDS011;28426;42.872;25.314;2023-05-21T12:33:46;10.30;;;4.13;;
42770;SDS011;28426;42.872;25.314;2023-05-21T12:36:21;10.07;;;3.92;;
42770;SDS011;28426;42.872;25.314;2023-05-21T12:41:22;8.40;;;3.42;;
42770;SDS011;28426;42.872;25.314;2023-05-21T12:43:56;9.10;;;4.40;;
42770;SDS011;28426;42.872;25.314;2023-05-21T12:46:27;7.15;;;4.28;;
42770;SDS011;28426;42.872;25.314;2023-05-21T12:48:59;7.85;;;4.35;;
42770;SDS011;28426;42.872;25.314;2023-05-21T12:51:36;8.35;;;4.32;;
42770;SDS011;28426;42.872;25.314;2023-05-21T12:54:10;7.10;;;3.95;;
42770;SDS011;28426;42.872;25.314;2023-05-21T12:56:45;26.63;;;6.13;;
42770;SDS011;28426;42.872;25.314;2023-05-21T12:59:18;7.47;;;4.15;;
42770;SDS011;28426;42.872;25.314;2023-05-21T13:01:50;9.38;;;5.00;;
42770;SDS011;28426;42.872;25.314;2023-05-21T13:04:22;9.52;;;4.93;;
42770;SDS011;28426;42.872;25.314;2023-05-21T13:06:53;9.57;;;4.50;;
42770;SDS011;28426;42.872;25.314;2023-05-21T13:09:24;8.88;;;4.57;;
42770;SDS011;28426;42.872;25.314;2023-05-21T13:11:55;9.40;;;4.35;;
42770;SDS011;28426;42.872;25.314;2023-05-21T13:14:29;10.82;;;4.82;;
42770;SDS011;28426;42.872;25.314;2023-05-21T13:17:00;8.57;;;4.78;;
42770;SDS011;28426;42.872;25.314;2023-05-21T13:19:31;8.88;;;4.47;;
42770;SDS011;28426;42.872;25.314;2023-05-21T13:22:02;6.95;;;4.53;;
42770;SDS011;28426;42.872;25.314;2023-05-21T13:24:33;6.57;;;3.53;;
42770;SDS011;28426;42.872;25.314;2023-05-21T13:27:06;7.57;;;3.35;;
42770;SDS011;28426;42.872;25.314;2023-05-21T13:29:39;6.60;;;2.97;;
42770;SDS011;28426;42.872;25.314;2023-05-21T13:32:10;7.38;;;2.75;;
42770;SDS011;28426;42.872;25.314;2023-05-21T13:34:41;8.80;;;2.80;;
42770;SDS011;28426;42.872;25.314;2023-05-21T13:37:12;6.90;;;2.75;;
42770;SDS011;28426;42.872;25.314;2023-05-21T13:39:43;7.82;;;3.05;;
42770;SDS011;28426;42.872;25.314;2023-05-21T13:42:14;7.70;;;3.30;;
42770;SDS011;28426;42.872;25.314;2023-05-21T13:44:48;5.72;;;3.00;;
42770;SDS011;28426;42.872;25.314;2023-05-21T13:47:19;8.30;;;3.20;;
42770;SDS011;28426;42.872;25.314;2023-05-21T13:49:50;8.90;;;3.20;;
42770;SDS011;28426;42.872;25.314;2023-05-21T13:52:21;7.07;;;3.40;;
42770;SDS011;28426;42.872;25.314;2023-05-21T13:54:52;9.52;;;3.95;;
42770;SDS011;28426;42.872;25.314;2023-05-21T13:57:23;8.25;;;3.88;;
42770;SDS011;28426;42.872;25.314;2023-05-21T13:59:59;7.40;;;3.53;;
42770;SDS011;28426;42.872;25.314;2023-05-21T14:02:34;7.45;;;3.03;;
42770;SDS011;28426;42.872;25.314;2023-05-21T14:05:05;8.40;;;3.38;;
42770;SDS011;28426;42.872;25.314;2023-05-21T14:07:37;8.05;;;2.97;;
42770;SDS011;28426;42.872;25.314;2023-05-21T14:10:09;8.00;;;3.58;;
42770;SDS011;28426;42.872;25.314;2023-05-21T14:12:40;9.30;;;3.90;;
42770;SDS011;28426;42.872;25.314;2023-05-21T14:15:15;11.63;;;4.03;;
42770;SDS011;28426;42.872;25.314;2023-05-21T14:17:46;9.40;;;4.15;;
42770;SDS011;28426;42.872;25.314;2023-05-21T14:20:18;8.50;;;4.45;;
42770;SDS011;28426;42.872;25.314;2023-05-21T14:22:49;9.68;;;4.40;;
42770;SDS011;28426;42.872;25.314;2023-05-21T14:25:20;14.38;;;4.75;;
42770;SDS011;28426;42.872;25.314;2023-05-21T14:27:51;20.88;;;6.78;;
42770;SDS011;28426;42.872;25.314;2023-05-21T14:30:24;17.33;;;5.72;;
42770;SDS011;28426;42.872;25.314;2023-05-21T14:32:55;10.65;;;5.35;;
42770;SDS011;28426;42.872;25.314;2023-05-21T14:35:27;11.88;;;5.28;;
42770;SDS011;28426;42.872;25.314;2023-05-21T14:37:58;13.43;;;5.60;;
42770;SDS011;28426;42.872;25.314;2023-05-21T14:40:29;13.90;;;5.30;;
42770;SDS011;28426;42.872;25.314;2023-05-21T14:43:02;12.77;;;5.10;;
42770;SDS011;28426;42.872;25.314;2023-05-21T14:45:35;10.02;;;4.78;;
42770;SDS011;28426;42.872;25.314;2023-05-21T14:48:06;16.50;;;5.25;;
42770;SDS011;28426;42.872;25.314;2023-05-21T14:50:38;12.00;;;5.15;;
42770;SDS011;28426;42.872;25.314;2023-05-21T14:53:09;13.27;;;6.05;;
42770;SDS011;28426;42.872;25.314;2023-05-21T14:55:41;8.52;;;4.50;;
42770;SDS011;28426;42.872;25.314;2023-05-21T14:58:12;11.80;;;4.50;;
42770;SDS011;28426;42.872;25.314;2023-05-21T15:00:46;7.00;;;3.70;;
42770;SDS011;28426;42.872;25.314;2023-05-21T15:03:17;15.30;;;5.32;;
42770;SDS011;28426;42.872;25.314;2023-05-21T15:05:48;16.50;;;5.45;;
42770;SDS011;28426;42.872;25.314;2023-05-21T15:08:19;13.00;;;5.13;;
42770;SDS011;28426;42.872;25.314;2023-05-21T15:10:49;16.10;;;5.10;;
42770;SDS011;28426;42.872;25.314;2023-05-21T15:13:20;16.13;;;5.25;;
42770;SDS011;28426;42.872;25.314;2023-05-21T15:15:54;10.25;;;4.85;;
42770;SDS011;28426;42.872;25.314;2023-05-21T15:18:25;9.75;;;4.07;;